Lemitar, New Mexico
Current Conditions -  °F | °C
As of 6:35 PM on Monday 20 Oct 2014 (Local Time) from KONM Reporting Station
Overcast Overcast  
Wind Chill: 16°   Ceiling: 10000
Heat Index: 16°   Visibility: 10mi
Dew Point: 10°   Wind: 3mph
Humidity: 66%   Direction: 190°S
Pressure: 30.13"   Gusts: NA
Location:  34.16°N, 106.91°W
Report Text: KONM 210035Z AUTO 19003KT 10SM SCT075 OVC100 16/10 A3013 RMK AO2 T01600096
Loading
Personal Weather Stations






























Interactive Weather Map
Tropical Storm Tracking
New forecast layout! Learn more

10-Day Weather Forecast

Advertisements
Track Severe Weather on mobile